createdAt,value
2023-04-18T16:01:53.923Z,8.40
2023-04-18T16:03:26.253Z,8.80
2023-04-18T16:04:58.782Z,8.80
2023-04-18T16:06:31.411Z,8.40
2023-04-18T16:08:03.246Z,4.00
2023-04-18T16:09:35.175Z,8.00
2023-04-18T16:11:07.916Z,7.40
2023-04-18T16:12:40.242Z,7.40
2023-04-18T16:14:12.286Z,8.00
2023-04-18T16:15:44.472Z,7.20
2023-04-18T16:17:16.482Z,8.00
2023-04-18T16:18:48.365Z,7.00
2023-04-18T16:20:20.303Z,9.00
2023-04-18T16:21:52.451Z,8.40
2023-04-18T16:23:25.582Z,5.80
2023-04-18T16:24:57.430Z,8.00
2023-04-18T16:26:29.972Z,8.00
2023-04-18T16:28:02.092Z,8.20
2023-04-18T16:29:34.861Z,8.20
2023-04-18T16:31:06.863Z,9.00
2023-04-18T16:32:38.839Z,7.00
2023-04-18T16:34:10.794Z,8.00
2023-04-18T16:35:42.784Z,6.20
2023-04-18T16:37:14.702Z,7.20
2023-04-18T16:38:46.868Z,7.00
2023-04-18T16:40:18.775Z,6.80
2023-04-18T16:41:51.425Z,7.00
2023-04-18T16:43:24.108Z,9.00
2023-04-18T16:44:55.964Z,6.20
2023-04-18T16:46:31.478Z,8.60
2023-04-18T16:48:03.644Z,8.00
2023-04-18T16:49:35.823Z,7.00
2023-04-18T16:51:07.748Z,6.60
2023-04-18T16:52:40.006Z,7.00
2023-04-18T16:54:12.271Z,9.00
2023-04-18T16:55:44.380Z,7.80
2023-04-18T16:57:17.821Z,9.00
2023-04-18T16:58:49.828Z,7.00
2023-04-18T17:00:21.771Z,6.80
2023-04-18T17:01:53.834Z,8.20
2023-04-18T17:03:26.290Z,9.00
2023-04-18T17:04:58.503Z,7.40
2023-04-18T17:06:31.572Z,8.40
2023-04-18T17:08:04.071Z,7.40
2023-04-18T17:09:36.080Z,8.00
2023-04-18T17:11:08.126Z,7.80
2023-04-18T17:12:40.063Z,8.20
2023-04-18T17:14:12.134Z,9.20
2023-04-18T17:15:44.140Z,5.80
2023-04-18T17:17:16.185Z,0.00
2023-04-18T17:18:48.007Z,7.80
2023-04-18T17:20:20.221Z,7.40
2023-04-18T17:21:52.256Z,7.20
2023-04-18T17:23:24.209Z,6.80
2023-04-18T17:24:56.148Z,7.00
2023-04-18T17:26:28.053Z,6.80
2023-04-18T17:28:02.422Z,6.00
2023-04-18T17:29:34.624Z,9.20
2023-04-18T17:31:06.833Z,8.00
2023-04-18T17:32:45.775Z,7.40
2023-04-18T17:34:17.797Z,8.60
2023-04-18T17:35:50.463Z,8.60
2023-04-18T17:37:22.864Z,10.00
2023-04-18T17:38:55.358Z,9.20
2023-04-18T17:40:28.150Z,6.80
2023-04-18T17:42:02.237Z,8.00
2023-04-18T17:43:34.239Z,8.60
2023-04-18T17:45:07.784Z,14.40
2023-04-18T17:46:39.827Z,20.20
2023-04-18T17:48:11.897Z,22.20
2023-04-18T17:49:44.136Z,20.00
2023-04-18T17:51:16.644Z,24.00
2023-04-18T17:52:48.556Z,30.00
2023-04-18T17:54:20.420Z,31.20
2023-04-18T17:55:52.625Z,35.50
2023-04-18T17:57:26.216Z,42.50
2023-04-18T17:58:58.215Z,42.75
2023-04-18T18:00:30.740Z,40.50
2023-04-18T18:02:03.292Z,49.75
2023-04-18T18:03:35.503Z,49.25
2023-04-18T18:05:11.284Z,53.25
2023-04-18T18:06:53.754Z,58.00
2023-04-18T18:08:25.976Z,62.50
2023-04-18T18:09:58.021Z,67.60
2023-04-18T18:11:30.053Z,94.75
2023-04-18T18:13:02.188Z,67.80
2023-04-18T18:14:34.150Z,71.60
2023-04-18T18:16:06.624Z,64.60
2023-04-18T18:17:39.434Z,65.40
2023-04-18T18:19:11.451Z,84.75
2023-04-18T18:20:43.481Z,72.50
2023-04-18T18:22:16.082Z,73.00
2023-04-18T18:23:48.027Z,85.75
2023-04-18T18:25:20.891Z,102.25
2023-04-18T18:26:52.777Z,86.00
2023-04-18T18:28:24.852Z,88.25
2023-04-18T18:29:56.745Z,86.50
2023-04-18T18:31:28.737Z,90.75
2023-04-18T18:33:01.545Z,93.50
2023-04-18T18:34:33.626Z,100.50
2023-04-18T18:36:07.103Z,94.50
2023-04-18T18:37:39.562Z,89.25
2023-04-18T18:39:11.794Z,100.25
2023-04-18T18:40:43.849Z,91.50
2023-04-18T18:42:16.188Z,92.50
2023-04-18T18:43:48.327Z,96.50
2023-04-18T18:45:21.482Z,92.00
2023-04-18T18:46:53.482Z,96.75
2023-04-18T18:48:27.217Z,87.50
2023-04-18T18:49:59.309Z,89.25
2023-04-18T18:51:31.408Z,115.50
2023-04-18T18:53:03.548Z,117.25
2023-04-18T18:54:35.415Z,126.00
2023-04-18T18:56:08.843Z,121.67
2023-04-18T18:57:40.766Z,115.00
2023-04-18T18:59:12.934Z,115.75
2023-04-18T19:00:46.988Z,113.75
2023-04-18T19:02:19.074Z,114.75
2023-04-18T19:03:51.140Z,104.50
2023-04-18T19:05:23.360Z,106.25
2023-04-18T19:06:55.437Z,100.25
2023-04-18T19:08:27.519Z,82.50
2023-04-18T19:10:01.971Z,86.50
2023-04-18T19:11:34.007Z,80.50
2023-04-18T19:13:06.057Z,78.25
2023-04-18T19:14:37.984Z,76.50
2023-04-18T19:16:10.019Z,72.20
2023-04-18T19:17:42.136Z,66.80
2023-04-18T19:19:15.084Z,65.00
2023-04-18T19:20:47.432Z,72.40
2023-04-18T19:22:19.330Z,74.60
2023-04-18T19:23:51.268Z,71.80
2023-04-18T19:25:23.651Z,65.60
2023-04-18T19:26:55.564Z,74.60
2023-04-18T19:28:27.916Z,67.00
2023-04-18T19:29:59.918Z,75.00
2023-04-18T19:31:32.103Z,65.80
2023-04-18T19:33:04.575Z,76.50
2023-04-18T19:34:36.654Z,77.50
2023-04-18T19:36:08.541Z,78.00
2023-04-18T19:37:40.468Z,78.75
2023-04-18T19:39:12.657Z,79.75
2023-04-18T19:40:44.877Z,83.75
2023-04-18T19:42:16.864Z,84.50
2023-04-18T19:43:48.773Z,79.00
2023-04-18T19:45:20.844Z,88.75
2023-04-18T19:46:52.776Z,82.50
2023-04-18T19:48:24.708Z,88.00
2023-04-18T19:49:56.691Z,88.00
2023-04-18T19:51:28.545Z,92.50
2023-04-18T19:53:00.572Z,87.50
2023-04-18T19:54:36.047Z,93.75
2023-04-18T19:56:11.005Z,88.00
2023-04-18T19:57:43.432Z,92.00
2023-04-18T19:59:15.906Z,93.75
2023-04-18T20:00:48.161Z,94.00
2023-04-18T20:02:20.231Z,95.00
2023-04-18T20:03:52.512Z,94.50
2023-04-18T20:05:24.964Z,98.25
2023-04-18T20:06:57.360Z,94.25
2023-04-18T20:08:29.612Z,86.25
2023-04-18T20:10:01.704Z,93.25
2023-04-18T20:11:33.760Z,101.75
2023-04-18T20:13:05.777Z,98.75
2023-04-18T20:14:37.714Z,102.50
2023-04-18T20:16:09.758Z,116.75
2023-04-18T20:17:41.760Z,112.75
2023-04-18T20:19:14.001Z,133.00
2023-04-18T20:20:46.800Z,104.00
2023-04-18T20:22:18.963Z,93.75
2023-04-18T20:23:51.428Z,104.50
2023-04-18T20:25:23.648Z,105.75
2023-04-18T20:26:55.545Z,122.75
2023-04-18T20:28:27.604Z,128.50
2023-04-18T20:29:59.604Z,139.00
2023-04-18T20:31:31.560Z,110.50
2023-04-18T20:33:03.748Z,105.75
2023-04-18T20:34:36.131Z,104.00
2023-04-18T20:36:08.493Z,112.75
2023-04-18T20:37:41.510Z,109.75
2023-04-18T20:39:13.994Z,104.50
2023-04-18T20:40:46.157Z,101.00
2023-04-18T20:42:18.777Z,103.25
2023-04-18T20:43:53.808Z,103.25
2023-04-18T20:45:25.699Z,103.75
2023-04-18T20:46:58.151Z,98.50
2023-04-18T20:48:30.132Z,98.00
2023-04-18T20:50:02.343Z,102.50
2023-04-18T20:51:38.150Z,102.75
2023-04-18T20:53:10.203Z,103.75
2023-04-18T20:54:42.172Z,97.75
2023-04-18T20:56:14.019Z,102.50
2023-04-18T20:57:46.201Z,105.50
2023-04-18T20:59:18.221Z,104.25
2023-04-18T21:00:50.178Z,104.00
2023-04-18T21:02:22.128Z,96.75
2023-04-18T21:03:54.404Z,103.75
2023-04-18T21:05:26.530Z,97.75
2023-04-18T21:06:58.539Z,99.50
2023-04-18T21:08:31.744Z,100.75
2023-04-18T21:10:04.152Z,99.50
2023-04-18T21:11:36.153Z,94.75
2023-04-18T21:13:09.412Z,90.00
2023-04-18T21:14:41.334Z,93.75
2023-04-18T21:16:13.387Z,96.50
2023-04-18T21:17:45.376Z,91.25
2023-04-18T21:19:17.291Z,91.00
2023-04-18T21:20:49.592Z,87.75
2023-04-18T21:22:21.496Z,90.50
2023-04-18T21:23:53.409Z,85.00
2023-04-18T21:25:25.331Z,80.25
2023-04-18T21:26:57.902Z,84.00
2023-04-18T21:28:29.894Z,82.75
2023-04-18T21:30:04.101Z,82.75
2023-04-18T21:31:36.807Z,80.75
2023-04-18T21:33:08.777Z,75.50
2023-04-18T21:34:40.739Z,74.00
2023-04-18T21:36:12.621Z,72.40
2023-04-18T21:37:44.707Z,72.60
2023-04-18T21:39:16.796Z,75.40
2023-04-18T21:40:48.726Z,74.80
2023-04-18T21:42:20.614Z,71.80
2023-04-18T21:43:52.819Z,66.20
2023-04-18T21:45:24.840Z,66.40
2023-04-18T21:46:57.077Z,80.75
2023-04-18T21:48:28.946Z,69.40
2023-04-18T21:50:00.934Z,65.75
2023-04-18T21:51:33.251Z,76.20
2023-04-18T21:53:05.125Z,76.00
2023-04-18T21:54:37.099Z,64.60
2023-04-18T21:56:09.171Z,58.75
2023-04-18T21:57:41.419Z,58.25
2023-04-18T21:59:13.282Z,52.75
2023-04-18T22:00:45.195Z,51.00
2023-04-18T22:02:17.255Z,49.00
2023-04-18T22:03:49.440Z,64.50
2023-04-18T22:05:21.898Z,55.50
2023-04-18T22:06:54.386Z,54.25
2023-04-18T22:08:26.464Z,54.25
2023-04-18T22:09:59.984Z,54.50
2023-04-18T22:11:32.358Z,55.75
2023-04-18T22:13:04.945Z,62.25
2023-04-18T22:14:36.873Z,53.75
2023-04-18T22:16:09.638Z,54.50
2023-04-18T22:17:42.573Z,57.75
2023-04-18T22:19:14.470Z,59.00
2023-04-18T22:20:47.058Z,52.25
2023-04-18T22:22:19.111Z,60.25
2023-04-18T22:23:51.089Z,67.75
2023-04-18T22:25:23.109Z,60.80
2023-04-18T22:26:55.021Z,63.25
2023-04-18T22:28:28.203Z,62.40
2023-04-18T22:30:00.140Z,70.00
2023-04-18T22:31:32.117Z,64.80
2023-04-18T22:33:04.138Z,62.60
2023-04-18T22:34:36.070Z,65.60
